createdAt,value
2019-05-10T00:01:32.409Z,5.90
2019-05-10T00:04:19.512Z,5.90
2019-05-10T00:07:06.240Z,5.90
2019-05-10T00:09:34.313Z,5.90
2019-05-10T00:12:15.761Z,5.90
2019-05-10T00:14:45.824Z,6.00
2019-05-10T00:17:16.429Z,5.90
2019-05-10T00:19:45.193Z,6.00
2019-05-10T00:22:15.529Z,6.00
2019-05-10T00:24:44.285Z,6.10
2019-05-10T00:27:13.027Z,6.10
2019-05-10T00:29:41.753Z,6.00
2019-05-10T00:32:10.581Z,6.00
2019-05-10T00:34:39.413Z,6.00
2019-05-10T00:37:08.160Z,5.90
2019-05-10T00:39:36.884Z,5.90
2019-05-10T00:42:05.750Z,5.80
2019-05-10T00:44:34.490Z,5.90
2019-05-10T00:47:03.287Z,5.90
2019-05-10T00:49:32.049Z,5.90
2019-05-10T00:52:01.479Z,5.90
2019-05-10T00:54:30.190Z,5.90
2019-05-10T00:56:58.961Z,5.90
2019-05-10T00:59:27.693Z,5.90
2019-05-10T01:01:56.578Z,6.00
2019-05-10T01:04:25.351Z,6.00
2019-05-10T01:06:56.350Z,6.00
2019-05-10T01:09:24.493Z,5.90
2019-05-10T01:11:53.218Z,5.80
2019-05-10T01:14:21.953Z,5.80
2019-05-10T01:16:50.800Z,5.80
2019-05-10T01:19:19.518Z,5.70
2019-05-10T01:21:48.328Z,5.60
2019-05-10T01:24:18.062Z,5.70
2019-05-10T01:26:46.717Z,5.70
2019-05-10T01:29:15.439Z,5.80
2019-05-10T01:31:44.302Z,5.90
2019-05-10T01:34:14.420Z,5.90
2019-05-10T01:36:43.124Z,5.90
2019-05-10T01:39:11.896Z,5.90
2019-05-10T01:41:40.675Z,6.00
2019-05-10T01:44:09.403Z,5.90
2019-05-10T01:46:38.217Z,5.90
2019-05-10T01:49:06.958Z,5.90
2019-05-10T01:51:35.753Z,5.90
2019-05-10T01:54:04.517Z,5.90
2019-05-10T01:56:33.239Z,5.90
2019-05-10T01:59:01.977Z,5.90
2019-05-10T02:01:30.850Z,5.90
2019-05-10T02:03:59.526Z,5.90
2019-05-10T02:06:28.357Z,5.80
2019-05-10T02:08:57.120Z,5.80
2019-05-10T02:11:25.841Z,5.70
2019-05-10T02:13:54.651Z,5.70
2019-05-10T02:16:23.406Z,5.70
2019-05-10T02:18:52.236Z,5.70
2019-05-10T02:21:21.044Z,5.70
2019-05-10T02:23:49.812Z,5.70
2019-05-10T02:26:20.387Z,5.70
2019-05-10T02:28:49.101Z,5.70
2019-05-10T02:31:21.443Z,5.70
2019-05-10T02:33:48.327Z,5.70
2019-05-10T02:36:17.060Z,5.80
2019-05-10T02:38:47.070Z,5.70
2019-05-10T02:41:15.747Z,5.70
2019-05-10T02:43:44.560Z,5.70
2019-05-10T02:46:13.271Z,5.70
2019-05-10T02:48:42.191Z,5.60
2019-05-10T02:51:10.936Z,5.60
2019-05-10T02:53:39.962Z,5.60
2019-05-10T02:56:27.837Z,5.50
2019-05-10T02:58:39.751Z,5.50
2019-05-10T03:01:09.916Z,5.50
2019-05-10T03:03:40.525Z,5.50
2019-05-10T03:06:09.252Z,5.50
2019-05-10T03:08:49.647Z,5.40
2019-05-10T03:11:19.145Z,5.40
2019-05-10T03:13:50.168Z,5.40
2019-05-10T03:16:25.057Z,5.30
2019-05-10T03:18:53.873Z,5.20
2019-05-10T03:21:24.845Z,5.20
2019-05-10T03:23:53.671Z,5.30
2019-05-10T03:26:22.592Z,5.30
2019-05-10T03:28:51.389Z,5.20
2019-05-10T03:31:20.280Z,5.20
2019-05-10T03:33:55.774Z,5.20
2019-05-10T03:36:19.492Z,5.30
2019-05-10T03:38:48.445Z,5.30
2019-05-10T03:41:17.461Z,5.20
2019-05-10T03:43:46.212Z,5.20
2019-05-10T03:46:15.021Z,5.10
2019-05-10T03:48:43.780Z,5.20
2019-05-10T03:51:12.767Z,5.20
2019-05-10T03:53:41.502Z,5.20
2019-05-10T03:56:10.259Z,5.20
2019-05-10T03:58:39.064Z,5.20
2019-05-10T04:01:07.868Z,5.20
2019-05-10T04:03:36.625Z,5.10
2019-05-10T04:06:05.447Z,5.00
2019-05-10T04:08:34.182Z,5.00
2019-05-10T04:11:02.922Z,5.00
2019-05-10T04:13:31.678Z,5.10
2019-05-10T04:16:00.408Z,5.10
2019-05-10T04:18:29.268Z,5.10
2019-05-10T04:20:58.009Z,5.00
2019-05-10T04:23:26.813Z,5.10
2019-05-10T04:25:55.636Z,5.10
2019-05-10T04:28:24.927Z,5.10
2019-05-10T04:30:55.185Z,5.20
2019-05-10T04:33:23.949Z,5.20
2019-05-10T04:35:52.686Z,5.30
2019-05-10T04:38:21.413Z,5.30
2019-05-10T04:40:50.204Z,5.30
2019-05-10T04:43:18.932Z,5.40
2019-05-10T04:45:47.670Z,5.50
2019-05-10T04:48:16.428Z,5.60
2019-05-10T04:50:48.851Z,5.60
2019-05-10T04:53:15.539Z,5.70
2019-05-10T04:55:47.018Z,5.70
2019-05-10T04:58:15.781Z,5.80
2019-05-10T05:00:44.579Z,5.80
2019-05-10T05:03:13.395Z,5.80
2019-05-10T05:05:42.216Z,5.90
2019-05-10T05:08:10.935Z,5.90
2019-05-10T05:10:39.687Z,5.90
2019-05-10T05:13:08.416Z,5.90
2019-05-10T05:15:37.174Z,5.90
2019-05-10T05:18:05.999Z,5.80
2019-05-10T05:20:34.729Z,5.80
2019-05-10T05:23:03.554Z,5.90
2019-05-10T05:25:35.241Z,5.80
2019-05-10T05:28:07.863Z,5.80
2019-05-10T05:30:33.206Z,5.90
2019-05-10T05:33:01.939Z,6.00
2019-05-10T05:35:30.742Z,6.00
2019-05-10T05:37:59.516Z,6.00
2019-05-10T05:40:28.232Z,6.00
2019-05-10T05:42:56.944Z,6.10
2019-05-10T05:45:28.250Z,6.20
2019-05-10T05:47:56.213Z,6.20
2019-05-10T05:50:24.921Z,6.20
2019-05-10T05:52:54.037Z,6.20
2019-05-10T05:55:23.365Z,6.20
2019-05-10T05:57:52.220Z,6.30
2019-05-10T06:00:21.045Z,6.30
2019-05-10T06:02:49.805Z,6.40
2019-05-10T06:05:32.582Z,6.50
2019-05-10T06:07:52.149Z,6.50
2019-05-10T06:10:19.853Z,6.50
2019-05-10T06:12:52.714Z,6.50
2019-05-10T06:15:23.111Z,6.60
2019-05-10T06:17:56.494Z,6.70
2019-05-10T06:20:21.331Z,6.70
2019-05-10T06:23:05.864Z,6.80
2019-05-10T06:25:37.599Z,6.80
2019-05-10T06:27:50.889Z,6.90
2019-05-10T06:30:19.834Z,6.90
2019-05-10T06:32:53.465Z,7.00
2019-05-10T06:35:19.562Z,7.00
2019-05-10T06:37:49.627Z,7.10
2019-05-10T06:40:25.667Z,7.10
2019-05-10T06:42:48.823Z,7.10
2019-05-10T06:45:17.744Z,7.20
2019-05-10T06:47:47.895Z,7.30
2019-05-10T06:50:17.241Z,7.30
2019-05-10T06:52:46.169Z,7.30
2019-05-10T06:55:15.171Z,7.30
2019-05-10T06:57:43.915Z,7.30
2019-05-10T07:00:13.235Z,7.40
2019-05-10T07:02:43.127Z,7.40
2019-05-10T07:05:11.921Z,7.50
2019-05-10T07:07:44.552Z,7.50
2019-05-10T07:10:18.744Z,7.50
2019-05-10T07:12:41.853Z,7.50
2019-05-10T07:15:11.082Z,7.50
2019-05-10T07:17:45.234Z,7.60
2019-05-10T07:20:10.649Z,7.60
2019-05-10T07:22:39.393Z,7.70
2019-05-10T07:25:08.451Z,7.80
2019-05-10T07:27:38.745Z,7.80
2019-05-10T07:30:07.987Z,7.80
2019-05-10T07:32:37.641Z,7.90
2019-05-10T07:35:06.995Z,7.90
2019-05-10T07:37:35.836Z,7.90
2019-05-10T07:40:06.950Z,8.00
2019-05-10T07:42:39.848Z,8.10
2019-05-10T07:45:09.371Z,8.10
2019-05-10T07:47:38.111Z,8.20
2019-05-10T07:50:09.938Z,8.20
2019-05-10T07:52:43.467Z,8.30
2019-05-10T07:55:10.515Z,8.20
2019-05-10T07:57:39.131Z,8.30
2019-05-10T08:00:08.243Z,8.20
2019-05-10T08:02:36.996Z,8.30
2019-05-10T08:05:10.929Z,8.40
2019-05-10T08:07:38.705Z,8.50
2019-05-10T08:10:09.076Z,8.40
2019-05-10T08:12:41.329Z,8.50
2019-05-10T08:15:09.943Z,8.50
2019-05-10T08:17:41.067Z,8.60
2019-05-10T08:20:25.693Z,8.70
2019-05-10T08:22:44.439Z,8.80
2019-05-10T08:25:12.618Z,8.80
2019-05-10T08:27:50.050Z,8.80
2019-05-10T08:30:26.305Z,8.90
2019-05-10T08:32:43.049Z,9.00
2019-05-10T08:35:16.974Z,9.10
2019-05-10T08:37:43.367Z,9.20
2019-05-10T08:40:12.915Z,9.20
2019-05-10T08:42:48.015Z,9.30
2019-05-10T08:45:12.677Z,9.30
2019-05-10T08:47:42.687Z,9.30
2019-05-10T08:50:28.816Z,9.20
2019-05-10T08:52:42.644Z,9.20
2019-05-10T08:55:12.335Z,9.10
2019-05-10T08:57:44.360Z,9.10
2019-05-10T09:00:13.062Z,9.10
2019-05-10T09:02:42.752Z,9.20
2019-05-10T09:05:12.458Z,9.40
2019-05-10T09:07:43.065Z,9.50
2019-05-10T09:10:13.031Z,9.50
2019-05-10T09:12:51.030Z,9.40
2019-05-10T09:15:13.565Z,9.20
2019-05-10T09:17:42.905Z,9.20
2019-05-10T09:20:20.843Z,9.20
2019-05-10T09:22:42.726Z,9.20
2019-05-10T09:25:12.803Z,9.20
2019-05-10T09:27:43.263Z,9.20
2019-05-10T09:30:14.048Z,9.20
2019-05-10T09:32:43.618Z,9.30
2019-05-10T09:35:12.951Z,9.30
2019-05-10T09:37:42.266Z,9.50
2019-05-10T09:40:13.157Z,9.60
2019-05-10T09:42:43.498Z,9.80
2019-05-10T09:45:13.063Z,10.00
2019-05-10T09:47:43.470Z,10.10
2019-05-10T09:50:12.943Z,10.20
2019-05-10T09:52:41.731Z,10.20
2019-05-10T09:55:14.853Z,10.30
2019-05-10T09:57:41.271Z,10.20
2019-05-10T10:00:11.005Z,10.10
2019-05-10T10:02:40.648Z,10.10
2019-05-10T10:05:09.914Z,10.10
2019-05-10T10:07:38.737Z,10.20
2019-05-10T10:10:12.837Z,10.10
2019-05-10T10:12:39.088Z,10.00
2019-05-10T10:15:10.716Z,10.00
2019-05-10T10:17:42.223Z,10.00
2019-05-10T10:20:09.034Z,10.10
2019-05-10T10:22:38.300Z,10.20
2019-05-10T10:25:07.630Z,10.20
2019-05-10T10:27:39.519Z,10.20
2019-05-10T10:30:12.703Z,10.30
2019-05-10T10:32:39.782Z,10.30
2019-05-10T10:35:13.219Z,10.50
2019-05-10T10:37:41.660Z,10.80
2019-05-10T10:40:10.500Z,11.10
2019-05-10T10:42:40.281Z,11.30
2019-05-10T10:45:10.790Z,11.40
2019-05-10T10:47:39.597Z,11.40
2019-05-10T10:50:13.520Z,11.40
2019-05-10T10:52:39.983Z,11.40
2019-05-10T10:55:13.346Z,11.30
2019-05-10T10:57:40.534Z,11.10
2019-05-10T11:00:11.389Z,11.00
2019-05-10T11:02:41.717Z,11.00
2019-05-10T11:05:11.566Z,10.90
2019-05-10T11:07:44.294Z,10.90
2019-05-10T11:10:17.955Z,10.90
2019-05-10T11:12:41.576Z,10.90
2019-05-10T11:15:11.475Z,10.90
2019-05-10T11:17:40.857Z,10.80
2019-05-10T11:20:11.592Z,10.90
2019-05-10T11:22:41.976Z,11.10
2019-05-10T11:25:12.899Z,11.40
2019-05-10T11:27:41.861Z,11.50
2019-05-10T11:30:12.174Z,11.50
2019-05-10T11:32:41.803Z,11.70
2019-05-10T11:35:12.061Z,11.80
2019-05-10T11:37:45.419Z,12.10
2019-05-10T11:40:12.770Z,12.00
2019-05-10T11:42:47.269Z,12.00
2019-05-10T11:45:14.291Z,11.80
2019-05-10T11:47:43.022Z,11.70
2019-05-10T11:50:26.586Z,11.70
2019-05-10T11:52:42.725Z,11.40
2019-05-10T11:55:11.791Z,11.40
2019-05-10T11:57:44.193Z,11.10
2019-05-10T12:00:24.293Z,11.00
2019-05-10T12:03:01.063Z,11.00
2019-05-10T12:07:45.990Z,11.00
2019-05-10T12:10:20.637Z,11.00
2019-05-10T12:13:00.566Z,11.10
2019-05-10T12:15:15.324Z,11.40
2019-05-10T12:17:46.912Z,11.50
2019-05-10T12:20:16.751Z,11.50
2019-05-10T12:22:47.531Z,11.40
2019-05-10T12:25:36.030Z,11.30
2019-05-10T12:26:17.832Z,10.90
2019-05-10T12:27:49.183Z,11.30
2019-05-10T12:30:17.515Z,11.30
2019-05-10T12:32:55.665Z,11.10
2019-05-10T12:35:16.655Z,11.00
2019-05-10T12:37:51.373Z,11.00
2019-05-10T12:40:15.794Z,11.00
2019-05-10T12:42:46.866Z,10.90
2019-05-10T12:45:15.878Z,10.90
2019-05-10T12:47:44.633Z,10.90
2019-05-10T12:50:13.759Z,10.70
2019-05-10T12:52:43.293Z,10.60
2019-05-10T12:55:12.372Z,10.60
2019-05-10T12:57:43.414Z,10.80
2019-05-10T13:00:15.569Z,10.80
2019-05-10T13:02:44.860Z,11.00
2019-05-10T13:05:15.536Z,11.00
2019-05-10T13:07:44.300Z,11.00
2019-05-10T13:10:13.568Z,11.10
2019-05-10T13:12:45.200Z,11.10
2019-05-10T13:15:13.623Z,11.30
2019-05-10T13:17:50.632Z,11.40
2019-05-10T13:20:14.225Z,11.70
2019-05-10T13:22:42.975Z,11.80
2019-05-10T13:25:11.723Z,11.90
2019-05-10T13:27:40.442Z,12.10
2019-05-10T13:30:10.485Z,12.20
2019-05-10T13:32:39.245Z,12.20
2019-05-10T13:35:09.081Z,12.10
2019-05-10T13:37:37.919Z,12.10
2019-05-10T13:40:08.101Z,11.80
2019-05-10T13:42:43.203Z,11.80
2019-05-10T13:45:09.509Z,11.60
2019-05-10T13:47:38.268Z,11.50
2019-05-10T13:50:07.662Z,11.50
2019-05-10T13:52:40.825Z,11.30
2019-05-10T13:55:07.460Z,11.30
2019-05-10T13:57:36.251Z,11.10
2019-05-10T14:00:09.533Z,11.10
2019-05-10T14:02:38.364Z,11.20
2019-05-10T14:05:11.814Z,11.30
2019-05-10T14:07:38.034Z,11.30
2019-05-10T14:10:07.152Z,11.20
2019-05-10T14:12:35.919Z,11.30
2019-05-10T14:15:12.826Z,11.40
2019-05-10T14:17:36.887Z,11.60
2019-05-10T14:20:19.346Z,11.60
2019-05-10T14:22:38.126Z,11.70
2019-05-10T14:25:07.943Z,11.80
2019-05-10T14:27:38.612Z,11.90
2019-05-10T14:30:13.682Z,12.00
2019-05-10T14:32:38.729Z,11.90
2019-05-10T14:35:07.979Z,11.90
2019-05-10T14:37:36.733Z,12.10
2019-05-10T14:40:06.997Z,12.50
2019-05-10T14:42:35.805Z,12.40
2019-05-10T14:45:05.774Z,12.30
2019-05-10T14:47:46.343Z,12.30
2019-05-10T14:50:06.464Z,12.20
2019-05-10T14:52:35.251Z,12.50
2019-05-10T14:55:06.482Z,12.30
2019-05-10T14:57:35.206Z,12.20
2019-05-10T15:00:08.321Z,12.30
2019-05-10T15:02:37.049Z,12.30
2019-05-10T15:05:15.464Z,12.30
2019-05-10T15:07:39.904Z,12.50
2019-05-10T15:10:09.099Z,12.70
2019-05-10T15:12:39.921Z,12.50
2019-05-10T15:15:09.275Z,12.70
2019-05-10T15:17:38.084Z,12.80
2019-05-10T15:20:07.493Z,12.80
2019-05-10T15:22:36.265Z,12.90
2019-05-10T15:25:06.312Z,12.80
2019-05-10T15:27:35.121Z,12.90
2019-05-10T15:30:08.136Z,12.90
2019-05-10T15:32:37.085Z,12.40
2019-05-10T15:35:08.387Z,12.30
2019-05-10T15:37:41.029Z,12.50
2019-05-10T15:40:08.354Z,12.60
2019-05-10T15:42:38.465Z,12.70
2019-05-10T15:45:12.250Z,12.60
2019-05-10T15:47:50.781Z,12.50
2019-05-10T15:50:09.771Z,12.80
2019-05-10T15:52:39.469Z,13.00
2019-05-10T15:55:09.171Z,12.80
2019-05-10T15:57:37.884Z,12.40
2019-05-10T16:00:08.217Z,12.30
2019-05-10T16:02:37.000Z,12.30
2019-05-10T16:05:23.231Z,12.10
2019-05-10T16:07:39.414Z,12.20
2019-05-10T16:10:08.342Z,12.00
2019-05-10T16:12:37.882Z,12.00
2019-05-10T16:15:13.538Z,12.00
2019-05-10T16:17:38.612Z,11.90
2019-05-10T16:20:08.395Z,11.90
2019-05-10T16:22:37.184Z,11.90
2019-05-10T16:25:06.624Z,11.80
2019-05-10T16:27:41.641Z,11.80
2019-05-10T16:30:12.023Z,11.60
2019-05-10T16:32:39.375Z,11.50
2019-05-10T16:35:12.504Z,11.50
2019-05-10T16:37:38.604Z,11.40
2019-05-10T16:40:08.030Z,11.40
2019-05-10T16:42:36.788Z,11.30
2019-05-10T16:45:07.034Z,11.40
2019-05-10T16:47:37.368Z,11.60
2019-05-10T16:50:07.416Z,11.40
2019-05-10T16:52:36.166Z,11.30
2019-05-10T16:55:09.616Z,11.10
2019-05-10T16:57:39.326Z,11.20
2019-05-10T17:00:10.682Z,11.00
2019-05-10T17:02:42.198Z,10.90
2019-05-10T17:05:15.139Z,10.90
2019-05-10T17:07:40.828Z,10.90
2019-05-10T17:10:10.340Z,10.90
2019-05-10T17:12:39.167Z,10.90
2019-05-10T17:15:08.401Z,10.80
2019-05-10T17:17:39.154Z,10.90
2019-05-10T17:20:14.020Z,10.90
2019-05-10T17:22:39.130Z,10.90
2019-05-10T17:25:09.670Z,10.90
2019-05-10T17:27:38.518Z,10.80
2019-05-10T17:30:07.960Z,10.90
2019-05-10T17:32:38.647Z,10.70
2019-05-10T17:35:08.612Z,10.70
2019-05-10T17:37:37.612Z,10.60
2019-05-10T17:40:12.132Z,10.60
2019-05-10T17:42:41.770Z,10.40
2019-05-10T17:45:10.450Z,10.30
2019-05-10T17:47:39.396Z,10.10
2019-05-10T17:50:08.619Z,9.90
2019-05-10T17:52:37.440Z,9.80
2019-05-10T17:55:10.767Z,10.00
2019-05-10T17:57:38.655Z,9.90
2019-05-10T18:00:10.526Z,9.90
2019-05-10T18:02:39.412Z,9.80
2019-05-10T18:05:08.641Z,9.90
2019-05-10T18:07:38.420Z,9.80
2019-05-10T18:10:08.884Z,9.70
2019-05-10T18:12:37.672Z,9.60
2019-05-10T18:15:08.087Z,9.70
2019-05-10T18:17:36.849Z,9.70
2019-05-10T18:20:06.298Z,9.80
2019-05-10T18:22:43.476Z,9.80
2019-05-10T18:25:06.769Z,9.80
2019-05-10T18:27:35.511Z,9.80
2019-05-10T18:30:05.208Z,9.70
2019-05-10T18:32:35.731Z,9.70
2019-05-10T18:35:14.788Z,9.70
2019-05-10T18:37:39.016Z,9.60
2019-05-10T18:40:08.226Z,9.50
2019-05-10T18:42:38.017Z,9.60
2019-05-10T18:45:07.586Z,9.60
2019-05-10T18:47:36.333Z,9.60
2019-05-10T18:50:06.191Z,9.50
2019-05-10T18:52:34.954Z,9.40
2019-05-10T18:55:04.086Z,9.30
2019-05-10T18:57:34.510Z,9.20
2019-05-10T19:00:03.543Z,9.20
2019-05-10T19:02:32.568Z,9.30
2019-05-10T19:05:01.317Z,9.20
2019-05-10T19:07:30.138Z,9.10
2019-05-10T19:09:58.873Z,9.20
2019-05-10T19:12:27.845Z,9.10
2019-05-10T19:15:02.184Z,9.10
2019-05-10T19:17:27.312Z,9.10
2019-05-10T19:19:56.044Z,9.00
2019-05-10T19:22:24.839Z,8.90
2019-05-10T19:24:56.845Z,8.90
2019-05-10T19:27:25.190Z,8.90
2019-05-10T19:29:54.080Z,8.80
2019-05-10T19:32:22.926Z,8.70
2019-05-10T19:34:57.245Z,8.60
2019-05-10T19:37:31.385Z,8.60
2019-05-10T19:39:52.646Z,8.60
2019-05-10T19:42:21.452Z,8.50
2019-05-10T19:44:50.831Z,8.50
2019-05-10T19:47:20.082Z,8.50
2019-05-10T19:49:51.734Z,8.40
2019-05-10T19:52:21.377Z,8.40
2019-05-10T19:54:49.851Z,8.30
2019-05-10T19:57:18.914Z,8.20
2019-05-10T19:59:48.653Z,8.30
2019-05-10T20:02:19.470Z,8.40
2019-05-10T20:04:48.263Z,8.30
2019-05-10T20:07:17.029Z,8.30
2019-05-10T20:09:45.855Z,8.30
2019-05-10T20:12:14.594Z,8.20
2019-05-10T20:14:44.664Z,8.20
2019-05-10T20:17:13.534Z,8.10
2019-05-10T20:19:42.649Z,8.10
2019-05-10T20:22:11.440Z,8.10
2019-05-10T20:24:40.180Z,8.20
2019-05-10T20:27:08.939Z,8.10
2019-05-10T20:29:37.745Z,8.10
2019-05-10T20:32:06.580Z,8.10
2019-05-10T20:34:35.548Z,8.00
2019-05-10T20:37:04.565Z,8.00
2019-05-10T20:39:33.393Z,8.00
2019-05-10T20:42:02.192Z,7.90
2019-05-10T20:44:30.961Z,8.00
2019-05-10T20:46:59.678Z,8.00
2019-05-10T20:49:28.486Z,8.00
2019-05-10T20:51:57.335Z,7.90
2019-05-10T20:54:26.050Z,7.90
2019-05-10T20:56:55.046Z,8.00
2019-05-10T20:59:23.840Z,8.00
2019-05-10T21:01:52.599Z,8.10
2019-05-10T21:04:21.346Z,8.10
2019-05-10T21:06:50.161Z,8.00
2019-05-10T21:09:18.985Z,7.90
2019-05-10T21:11:47.741Z,7.90
2019-05-10T21:14:16.473Z,7.90
2019-05-10T21:16:45.239Z,7.80
2019-05-10T21:19:13.976Z,7.70
2019-05-10T21:21:42.724Z,7.70
2019-05-10T21:24:11.520Z,7.70
2019-05-10T21:26:41.178Z,7.80
2019-05-10T21:29:09.903Z,7.70
2019-05-10T21:31:38.621Z,7.80
2019-05-10T21:34:10.007Z,7.70
2019-05-10T21:36:37.830Z,7.70
2019-05-10T21:39:07.419Z,7.70
2019-05-10T21:41:36.238Z,7.80
2019-05-10T21:44:05.006Z,7.80
2019-05-10T21:46:34.040Z,7.80
2019-05-10T21:49:02.893Z,7.90
2019-05-10T21:51:31.683Z,7.90
2019-05-10T21:54:00.445Z,7.90
2019-05-10T21:56:29.215Z,7.80
2019-05-10T21:58:57.938Z,7.90
2019-05-10T22:01:26.761Z,7.90
2019-05-10T22:03:55.554Z,7.80
2019-05-10T22:06:24.279Z,7.80
2019-05-10T22:08:53.023Z,7.70
2019-05-10T22:11:21.745Z,7.80
2019-05-10T22:13:50.469Z,7.80
2019-05-10T22:16:20.597Z,7.80
2019-05-10T22:18:50.956Z,7.80
2019-05-10T22:21:19.793Z,7.70
2019-05-10T22:23:48.505Z,7.80
2019-05-10T22:26:17.234Z,7.90
2019-05-10T22:28:45.970Z,7.70
2019-05-10T22:31:14.800Z,7.70
2019-05-10T22:33:43.622Z,7.70
2019-05-10T22:36:12.347Z,7.80
2019-05-10T22:38:41.175Z,7.80
2019-05-10T22:41:09.833Z,7.70
2019-05-10T22:43:38.626Z,7.70
2019-05-10T22:46:09.336Z,7.90
2019-05-10T22:48:37.764Z,8.00
2019-05-10T22:51:06.547Z,7.80
2019-05-10T22:53:35.248Z,7.70
2019-05-10T22:56:04.066Z,7.70
2019-05-10T22:58:32.882Z,7.70
2019-05-10T23:01:01.670Z,7.70
2019-05-10T23:03:30.423Z,7.70
2019-05-10T23:05:59.162Z,7.60
2019-05-10T23:08:27.957Z,7.80
2019-05-10T23:10:56.834Z,7.80
2019-05-10T23:13:25.618Z,7.70
2019-05-10T23:15:54.418Z,7.70
2019-05-10T23:18:23.210Z,7.70
2019-05-10T23:20:52.037Z,7.60
2019-05-10T23:23:21.125Z,7.70
2019-05-10T23:25:50.254Z,7.70
2019-05-10T23:28:19.072Z,7.80
2019-05-10T23:30:47.866Z,7.80
2019-05-10T23:33:16.667Z,7.70
2019-05-10T23:35:45.420Z,7.70
2019-05-10T23:38:14.210Z,7.70
2019-05-10T23:40:42.946Z,7.70
2019-05-10T23:43:11.694Z,7.70
2019-05-10T23:45:40.420Z,7.70
2019-05-10T23:48:09.153Z,7.70
2019-05-10T23:50:37.912Z,7.70
2019-05-10T23:53:06.637Z,7.70
2019-05-10T23:55:35.469Z,7.60
2019-05-10T23:58:04.218Z,7.70
